Time;durP1;ratioP1;P1;durP2;ratioP2;P2;SDS_P1;SDS_P2;PMS_P1;PMS_P2;Temp;Humidity;BMP_temperature;BMP_pressure;BME280_temperature;BME280_humidity;BME280_pressure;Samples;Min_cycle;Max_cycle;Signal;HPM_P1;HPM_P2
2021/12/20 00:03:24;;;;;;;7.57;6.38;;;;;;;;;;12447600;28;20038;-72
2021/12/20 00:09:26;;;;;;;7.77;6.73;;;;;;;;;;12448645;28;20038;-72
2021/12/20 00:15:28;;;;;;;9.93;8.13;;;;;;;;;;12431398;28;20033;-73
2021/12/20 00:21:30;;;;;;;12.27;9.68;;;;;;;;;;12449683;28;20030;-72
2021/12/20 00:27:32;;;;;;;18.20;12.82;;;;;;;;;;12448390;28;20072;-74
2021/12/20 00:33:34;;;;;;;56.20;17.67;;;;;;;;;;12446667;28;20526;-72
2021/12/20 00:45:56;;;;;;;8.70;6.93;;;;;;;;;;12447528;28;20295;-73
2021/12/20 00:51:58;;;;;;;9.68;7.90;;;;;;;;;;12445603;28;20040;-73
2021/12/20 00:58:00;;;;;;;11.23;8.73;;;;;;;;;;12447718;28;20049;-72
2021/12/20 01:04:02;;;;;;;20.23;8.80;;;;;;;;;;12445172;28;20053;-73
2021/12/20 01:10:07;;;;;;;16.17;8.20;;;;;;;;;;12446807;28;20033;-73
2021/12/20 01:22:20;;;;;;;12.10;8.57;;;;;;;;;;12587837;28;20493;-73
2021/12/20 01:28:22;;;;;;;7.60;6.50;;;;;;;;;;12587513;28;20036;-73
2021/12/20 01:34:24;;;;;;;12.13;8.33;;;;;;;;;;12587686;28;20051;-73
2021/12/20 01:45:05;;;;;;;9.73;6.28;;;;;;;;;;12588004;28;20544;-72
2021/12/20 01:57:22;;;;;;;24.83;12.98;;;;;;;;;;12587394;28;20044;-72
2021/12/20 02:03:24;;;;;;;10.90;8.90;;;;;;;;;;12585283;28;20033;-72
2021/12/20 02:09:25;;;;;;;10.27;9.20;;;;;;;;;;12586144;28;20033;-75
2021/12/20 02:15:27;;;;;;;12.60;9.95;;;;;;;;;;12585078;28;20039;-72
2021/12/20 02:21:29;;;;;;;11.00;8.82;;;;;;;;;;12585842;28;20037;-74
2021/12/20 02:27:31;;;;;;;10.75;7.93;;;;;;;;;;12586195;28;20401;-72
2021/12/20 02:39:53;;;;;;;9.60;7.85;;;;;;;;;;12584559;28;20059;-74
2021/12/20 02:45:58;;;;;;;17.27;11.48;;;;;;;;;;12585078;28;20033;-72
2021/12/20 02:52:02;;;;;;;9.90;7.75;;;;;;;;;;12574389;28;20496;-74
2021/12/20 02:58:03;;;;;;;16.27;12.48;;;;;;;;;;12551285;28;20021;-74
2021/12/20 03:04:06;;;;;;;13.25;11.15;;;;;;;;;;12549938;28;20474;-74
2021/12/20 03:10:08;;;;;;;10.80;8.20;;;;;;;;;;12551993;28;20037;-74
2021/12/20 03:16:10;;;;;;;12.32;10.48;;;;;;;;;;12550853;28;20279;-74
2021/12/20 03:22:12;;;;;;;12.93;10.00;;;;;;;;;;12550527;28;20037;-73
2021/12/20 03:28:14;;;;;;;16.20;11.40;;;;;;;;;;12549111;28;20500;-73
2021/12/20 03:34:16;;;;;;;12.10;9.40;;;;;;;;;;12549614;28;20465;-73
2021/12/20 03:40:18;;;;;;;10.73;7.78;;;;;;;;;;12549481;28;20060;-74
2021/12/20 03:46:20;;;;;;;14.02;8.27;;;;;;;;;;12549374;28;20032;-74
2021/12/20 03:52:22;;;;;;;13.45;9.77;;;;;;;;;;12548665;28;20029;-74
2021/12/20 03:58:27;;;;;;;10.25;7.68;;;;;;;;;;12547443;28;20040;-73
2021/12/20 04:04:28;;;;;;;9.98;7.22;;;;;;;;;;12547544;28;20049;-73
2021/12/20 04:10:30;;;;;;;12.32;9.77;;;;;;;;;;12548496;28;20033;-74
2021/12/20 04:16:32;;;;;;;11.63;9.18;;;;;;;;;;12546466;28;20033;-73
2021/12/20 04:22:33;;;;;;;16.88;11.68;;;;;;;;;;12545960;28;20045;-73
2021/12/20 04:28:35;;;;;;;12.68;9.02;;;;;;;;;;12547282;28;20086;-74
2021/12/20 04:34:37;;;;;;;17.23;11.90;;;;;;;;;;12545974;28;20040;-73
2021/12/20 04:40:38;;;;;;;12.13;9.40;;;;;;;;;;12546310;28;20048;-74
2021/12/20 04:46:40;;;;;;;9.93;8.00;;;;;;;;;;12544829;28;20052;-74
2021/12/20 04:52:42;;;;;;;14.57;11.52;;;;;;;;;;12545326;28;20037;-74
2021/12/20 04:58:44;;;;;;;14.15;11.38;;;;;;;;;;12545776;28;20397;-73
2021/12/20 05:04:45;;;;;;;11.98;9.60;;;;;;;;;;12544337;28;20037;-74
2021/12/20 05:10:47;;;;;;;5.88;4.55;;;;;;;;;;12544233;28;20041;-74
2021/12/20 05:16:49;;;;;;;7.40;5.85;;;;;;;;;;12544959;28;20032;-74
2021/12/20 05:22:50;;;;;;;13.02;9.60;;;;;;;;;;12543935;28;20470;-74
2021/12/20 05:28:54;;;;;;;12.10;9.30;;;;;;;;;;12544371;28;20032;-73
2021/12/20 05:34:56;;;;;;;9.95;7.95;;;;;;;;;;12544416;28;20037;-73
2021/12/20 05:40:58;;;;;;;6.45;5.18;;;;;;;;;;12543953;28;20053;-74
2021/12/20 05:47:00;;;;;;;12.38;7.88;;;;;;;;;;12543835;28;20032;-74
2021/12/20 05:53:02;;;;;;;13.93;10.00;;;;;;;;;;12543468;28;20036;-74
2021/12/20 05:59:04;;;;;;;9.95;7.68;;;;;;;;;;12543756;28;20033;-74
2021/12/20 06:05:06;;;;;;;12.05;8.50;;;;;;;;;;12543410;28;20397;-74
2021/12/20 06:11:07;;;;;;;11.30;8.57;;;;;;;;;;12544346;28;20037;-74
2021/12/20 06:17:09;;;;;;;16.48;12.05;;;;;;;;;;12541929;28;20033;-74
2021/12/20 06:23:12;;;;;;;16.58;11.50;;;;;;;;;;12543029;28;20051;-74
2021/12/20 06:29:14;;;;;;;18.92;13.65;;;;;;;;;;12546865;28;20025;-74
2021/12/20 06:35:15;;;;;;;13.85;9.70;;;;;;;;;;12550467;28;20406;-74
2021/12/20 06:41:18;;;;;;;11.82;9.32;;;;;;;;;;12540579;28;20521;-74
2021/12/20 06:47:21;;;;;;;14.30;10.45;;;;;;;;;;12540259;28;20025;-74
2021/12/20 06:53:23;;;;;;;21.17;15.77;;;;;;;;;;12508017;28;20036;-75
2021/12/20 06:59:25;;;;;;;20.23;15.07;;;;;;;;;;12515524;28;20041;-74
2021/12/20 07:05:26;;;;;;;20.98;15.70;;;;;;;;;;12525245;28;20041;-74
2021/12/20 07:11:29;;;;;;;14.85;11.82;;;;;;;;;;12531161;28;20032;-74
2021/12/20 07:17:31;;;;;;;14.25;9.93;;;;;;;;;;12532114;28;20037;-73
2021/12/20 07:25:00;;;;;;;14.35;10.57;;;;;;;;;;12561348;28;20545;-74
2021/12/20 07:31:01;;;;;;;11.80;9.73;;;;;;;;;;12522709;28;20041;-74
2021/12/20 07:37:03;;;;;;;10.48;8.10;;;;;;;;;;12535098;28;20286;-74
2021/12/20 07:43:05;;;;;;;10.60;7.90;;;;;;;;;;12525318;28;20511;-74
2021/12/20 07:49:07;;;;;;;20.25;14.40;;;;;;;;;;12533935;28;20045;-73
2021/12/20 07:55:09;;;;;;;18.60;14.07;;;;;;;;;;12546195;28;20043;-74
2021/12/20 08:01:11;;;;;;;21.05;14.23;;;;;;;;;;12557084;28;20029;-74
2021/12/20 08:07:13;;;;;;;26.33;18.08;;;;;;;;;;12533729;28;20505;-74
2021/12/20 08:13:16;;;;;;;18.27;13.97;;;;;;;;;;12536002;28;20052;-74
2021/12/20 08:19:18;;;;;;;18.15;14.10;;;;;;;;;;12535452;28;20078;-73
2021/12/20 08:25:20;;;;;;;17.05;13.48;;;;;;;;;;12530796;28;20466;-73
2021/12/20 08:31:21;;;;;;;25.97;19.50;;;;;;;;;;12518425;28;20028;-73
2021/12/20 08:37:23;;;;;;;24.50;17.10;;;;;;;;;;12482539;28;20467;-74
2021/12/20 08:43:26;;;;;;;20.75;14.77;;;;;;;;;;12487836;28;21364;-73
2021/12/20 08:49:29;;;;;;;21.42;15.93;;;;;;;;;;12487401;28;20033;-74
2021/12/20 08:55:31;;;;;;;30.45;19.30;;;;;;;;;;12498972;28;20044;-74
2021/12/20 09:01:33;;;;;;;23.00;14.77;;;;;;;;;;12495443;28;20389;-74
2021/12/20 09:07:36;;;;;;;23.87;15.97;;;;;;;;;;12508137;28;20053;-73
2021/12/20 09:13:38;;;;;;;38.75;23.35;;;;;;;;;;12494454;28;20394;-74
2021/12/20 09:19:39;;;;;;;37.45;21.33;;;;;;;;;;12477886;28;20058;-73
2021/12/20 09:25:43;;;;;;;27.95;16.92;;;;;;;;;;12484030;28;20033;-73
2021/12/20 09:31:45;;;;;;;29.25;19.77;;;;;;;;;;12489421;28;20034;-73
2021/12/20 09:37:50;;;;;;;32.08;19.85;;;;;;;;;;12489876;28;20075;-75
2021/12/20 09:43:52;;;;;;;30.42;20.00;;;;;;;;;;12489803;28;20045;-73
2021/12/20 09:49:54;;;;;;;38.22;26.33;;;;;;;;;;12501525;28;20033;-75
2021/12/20 09:55:57;;;;;;;46.87;24.23;;;;;;;;;;12485931;28;20018;-76
2021/12/20 10:01:59;;;;;;;41.55;24.75;;;;;;;;;;12487272;28;20938;-78
2021/12/20 10:08:09;;;;;;;39.45;22.45;;;;;;;;;;12486490;28;20025;-77
2021/12/20 10:14:13;;;;;;;33.47;20.90;;;;;;;;;;12483437;28;20505;-73
2021/12/20 10:20:20;;;;;;;33.10;20.25;;;;;;;;;;12472232;28;20057;-73
2021/12/20 10:26:22;;;;;;;34.58;20.83;;;;;;;;;;12483820;28;20022;-73
2021/12/20 10:32:43;;;;;;;29.98;18.55;;;;;;;;;;12483048;28;20033;-72
2021/12/20 10:38:46;;;;;;;25.90;19.25;;;;;;;;;;12483412;28;20033;-73
2021/12/20 10:45:07;;;;;;;24.77;17.63;;;;;;;;;;12485511;28;20044;-74
2021/12/20 10:51:23;;;;;;;21.75;16.95;;;;;;;;;;12480017;28;20033;-73
2021/12/20 10:57:26;;;;;;;21.73;16.88;;;;;;;;;;12493489;28;20041;-73
2021/12/20 11:03:35;;;;;;;18.15;16.13;;;;;;;;;;12480485;28;20037;-73
2021/12/20 11:09:41;;;;;;;16.67;14.77;;;;;;;;;;12463085;28;20041;-72
2021/12/20 11:15:42;;;;;;;16.52;14.48;;;;;;;;;;12478751;28;20390;-73
2021/12/20 11:21:55;;;;;;;16.08;14.38;;;;;;;;;;12474045;28;20045;-73
2021/12/20 11:27:57;;;;;;;15.23;13.45;;;;;;;;;;12480050;28;20034;-73
2021/12/20 11:34:02;;;;;;;17.08;14.77;;;;;;;;;;12483669;28;20048;-72
2021/12/20 11:40:05;;;;;;;13.35;11.95;;;;;;;;;;12482946;28;20045;-78
2021/12/20 11:46:07;;;;;;;13.77;11.80;;;;;;;;;;12475268;28;20406;-73
2021/12/20 11:52:19;;;;;;;13.27;11.87;;;;;;;;;;12476657;28;20504;-74
2021/12/20 11:58:23;;;;;;;12.10;10.80;;;;;;;;;;12464923;28;20038;-73
2021/12/20 12:04:45;;;;;;;10.10;8.93;;;;;;;;;;12477718;28;20394;-75
2021/12/20 12:10:47;;;;;;;11.23;10.05;;;;;;;;;;12480348;28;20397;-74
2021/12/20 12:16:53;;;;;;;9.48;8.45;;;;;;;;;;12485654;28;20037;-73
2021/12/20 12:23:08;;;;;;;10.77;8.85;;;;;;;;;;12484420;28;20049;-73
2021/12/20 12:29:17;;;;;;;8.23;7.43;;;;;;;;;;12499187;28;20026;-72
2021/12/20 12:35:42;;;;;;;7.43;6.70;;;;;;;;;;12479350;28;20033;-73
2021/12/20 12:41:47;;;;;;;7.45;6.63;;;;;;;;;;12486033;28;20053;-74
2021/12/20 12:47:49;;;;;;;6.55;5.85;;;;;;;;;;12499268;28;20367;-73
2021/12/20 12:53:55;;;;;;;7.63;5.90;;;;;;;;;;12481876;28;20048;-73
2021/12/20 13:00:04;;;;;;;7.80;7.00;;;;;;;;;;12494081;28;20479;-73
2021/12/20 13:06:18;;;;;;;8.63;7.72;;;;;;;;;;12460464;28;20033;-74
2021/12/20 13:12:29;;;;;;;9.38;8.48;;;;;;;;;;12476332;28;20088;-74
2021/12/20 13:18:34;;;;;;;9.63;8.65;;;;;;;;;;12450090;28;20030;-73
2021/12/20 13:24:35;;;;;;;9.82;8.80;;;;;;;;;;12486166;28;20065;-73
2021/12/20 13:30:42;;;;;;;12.13;9.15;;;;;;;;;;12460693;28;20045;-73
2021/12/20 13:36:51;;;;;;;10.93;9.75;;;;;;;;;;12487368;28;20386;-73
2021/12/20 13:42:54;;;;;;;8.77;7.65;;;;;;;;;;12498612;28;20049;-74
2021/12/20 13:49:10;;;;;;;9.30;7.93;;;;;;;;;;12491613;28;20038;-73
2021/12/20 13:55:12;;;;;;;8.20;6.60;;;;;;;;;;12497518;28;20029;-74
2021/12/20 14:01:14;;;;;;;8.55;6.68;;;;;;;;;;12488878;28;20402;-74
2021/12/20 14:07:27;;;;;;;9.18;7.80;;;;;;;;;;12478134;28;20052;-74
2021/12/20 14:13:30;;;;;;;8.35;7.43;;;;;;;;;;12495695;28;20037;-74
2021/12/20 14:19:50;;;;;;;9.00;7.43;;;;;;;;;;12495593;28;20077;-73
2021/12/20 14:26:01;;;;;;;9.45;7.80;;;;;;;;;;12494711;28;20052;-73
2021/12/20 14:32:05;;;;;;;10.27;8.57;;;;;;;;;;12495409;28;20049;-73
2021/12/20 14:38:26;;;;;;;10.90;9.25;;;;;;;;;;12495522;28;20041;-74
2021/12/20 14:44:37;;;;;;;14.35;9.98;;;;;;;;;;12495501;28;20056;-74
2021/12/20 14:50:43;;;;;;;10.60;8.98;;;;;;;;;;12495114;28;20041;-74
2021/12/20 14:56:50;;;;;;;11.23;6.97;;;;;;;;;;12493324;28;20037;-73
2021/12/20 15:02:52;;;;;;;8.05;6.70;;;;;;;;;;12493403;28;20041;-74
2021/12/20 15:08:54;;;;;;;7.32;6.50;;;;;;;;;;12494642;28;20059;-73
2021/12/20 15:14:55;;;;;;;10.85;8.20;;;;;;;;;;12494016;28;20041;-73
2021/12/20 15:20:58;;;;;;;9.47;7.67;;;;;;;;;;12494097;28;20066;-74
2021/12/20 15:27:00;;;;;;;12.63;9.77;;;;;;;;;;12494069;28;20589;-73
2021/12/20 15:33:03;;;;;;;7.28;6.53;;;;;;;;;;12493997;28;20044;-74
2021/12/20 15:39:05;;;;;;;12.88;11.48;;;;;;;;;;12492419;28;20034;-74
2021/12/20 15:45:08;;;;;;;9.68;8.68;;;;;;;;;;12499776;28;20049;-74
2021/12/20 15:51:09;;;;;;;8.85;7.95;;;;;;;;;;12502941;28;20041;-74
2021/12/20 15:57:11;;;;;;;9.73;7.75;;;;;;;;;;12503214;28;20044;-74
2021/12/20 16:03:14;;;;;;;10.07;8.73;;;;;;;;;;12503027;28;20049;-74
2021/12/20 16:09:16;;;;;;;8.45;7.50;;;;;;;;;;12501390;28;20033;-74
2021/12/20 16:15:21;;;;;;;15.05;12.30;;;;;;;;;;12501314;28;20067;-74
2021/12/20 16:21:23;;;;;;;12.75;10.15;;;;;;;;;;12502081;28;20068;-74
2021/12/20 16:27:28;;;;;;;10.10;8.98;;;;;;;;;;12500571;28;20029;-74
2021/12/20 16:33:35;;;;;;;7.93;7.15;;;;;;;;;;12501694;28;20044;-74
2021/12/20 16:39:36;;;;;;;9.15;8.20;;;;;;;;;;12500040;28;20341;-74
2021/12/20 16:45:56;;;;;;;8.80;7.85;;;;;;;;;;12499257;28;20044;-74
2021/12/20 16:51:58;;;;;;;8.07;7.28;;;;;;;;;;12500446;28;20037;-73
2021/12/20 16:58:00;;;;;;;7.97;7.00;;;;;;;;;;12500295;28;20037;-74
2021/12/20 17:04:25;;;;;;;9.02;7.65;;;;;;;;;;12501115;28;20399;-72
2021/12/20 17:10:23;;;;;;;8.65;7.78;;;;;;;;;;12500131;28;20033;-74
2021/12/20 17:16:25;;;;;;;9.05;6.68;;;;;;;;;;12499739;28;20045;-73
2021/12/20 17:22:27;;;;;;;8.30;7.40;;;;;;;;;;12498459;28;20421;-73
2021/12/20 17:28:29;;;;;;;7.57;6.57;;;;;;;;;;12498149;28;20034;-73
2021/12/20 17:34:31;;;;;;;8.13;7.25;;;;;;;;;;12498986;28;20029;-73
2021/12/20 17:40:33;;;;;;;15.52;14.00;;;;;;;;;;12498693;28;20042;-74
2021/12/20 17:46:35;;;;;;;12.37;11.10;;;;;;;;;;12498391;28;20029;-73
2021/12/20 17:52:36;;;;;;;14.93;13.50;;;;;;;;;;12497519;28;20045;-73
2021/12/20 17:58:38;;;;;;;15.88;12.45;;;;;;;;;;12497796;28;20494;-74
2021/12/20 18:04:40;;;;;;;10.75;9.65;;;;;;;;;;12496797;28;20048;-73
2021/12/20 18:10:42;;;;;;;9.77;8.77;;;;;;;;;;12497105;28;20036;-74
2021/12/20 18:16:44;;;;;;;12.95;11.65;;;;;;;;;;12495680;28;20303;-73
2021/12/20 18:22:47;;;;;;;14.20;12.40;;;;;;;;;;12496421;28;20153;-73
2021/12/20 18:28:49;;;;;;;14.48;12.63;;;;;;;;;;12496694;28;20028;-75
2021/12/20 18:34:51;;;;;;;14.80;12.25;;;;;;;;;;12495058;28;20033;-75
2021/12/20 18:40:53;;;;;;;12.43;10.85;;;;;;;;;;12495120;28;20053;-73
2021/12/20 18:46:55;;;;;;;13.10;11.68;;;;;;;;;;12494783;28;20033;-74
2021/12/20 18:52:57;;;;;;;15.02;12.82;;;;;;;;;;12496742;28;20052;-74
2021/12/20 18:58:59;;;;;;;12.93;11.38;;;;;;;;;;12493805;28;20045;-74
2021/12/20 19:05:00;;;;;;;12.85;11.45;;;;;;;;;;12494784;28;20041;-75
2021/12/20 19:11:08;;;;;;;14.95;13.35;;;;;;;;;;12493589;28;20048;-76
2021/12/20 19:17:10;;;;;;;13.88;12.57;;;;;;;;;;12494507;28;20037;-76
2021/12/20 19:23:12;;;;;;;14.63;13.13;;;;;;;;;;12493073;28;20061;-74
2021/12/20 19:29:14;;;;;;;12.10;10.93;;;;;;;;;;12493218;28;20272;-74
2021/12/20 19:35:16;;;;;;;10.98;9.68;;;;;;;;;;12494063;28;20372;-75
2021/12/20 19:41:18;;;;;;;12.20;10.93;;;;;;;;;;12493713;28;20037;-74
2021/12/20 19:47:19;;;;;;;11.65;10.45;;;;;;;;;;12494032;28;20038;-74
2021/12/20 19:53:21;;;;;;;12.40;10.68;;;;;;;;;;12494446;28;20477;-75
2021/12/20 19:59:23;;;;;;;12.60;10.20;;;;;;;;;;12493165;28;20030;-74
2021/12/20 20:05:25;;;;;;;9.95;8.93;;;;;;;;;;12493727;28;20398;-75
2021/12/20 20:11:28;;;;;;;9.73;8.75;;;;;;;;;;12492140;28;20041;-75
2021/12/20 20:17:29;;;;;;;12.85;11.43;;;;;;;;;;12493068;28;20127;-74
2021/12/20 20:23:31;;;;;;;14.88;13.07;;;;;;;;;;12493172;28;20064;-75
2021/12/20 20:29:33;;;;;;;12.52;11.13;;;;;;;;;;12497178;28;20033;-75
2021/12/20 20:35:35;;;;;;;11.25;9.90;;;;;;;;;;12484292;28;20034;-74
2021/12/20 20:41:38;;;;;;;14.23;11.73;;;;;;;;;;12500246;28;20041;-75
2021/12/20 20:47:40;;;;;;;14.73;12.40;;;;;;;;;;12501285;28;20481;-77
2021/12/20 20:53:42;;;;;;;14.73;12.65;;;;;;;;;;12500278;28;20037;-77
2021/12/20 20:59:44;;;;;;;13.27;11.90;;;;;;;;;;12483492;28;20040;-75
2021/12/20 21:05:45;;;;;;;14.68;12.90;;;;;;;;;;12499243;28;20052;-76
2021/12/20 21:11:49;;;;;;;14.05;12.55;;;;;;;;;;12499565;28;20040;-74
2021/12/20 21:17:55;;;;;;;12.77;11.48;;;;;;;;;;12498686;28;20034;-74
2021/12/20 21:23:57;;;;;;;11.35;9.60;;;;;;;;;;12499443;28;20392;-72
2021/12/20 21:29:59;;;;;;;10.20;9.13;;;;;;;;;;12497668;28;20022;-73
2021/12/20 21:36:00;;;;;;;13.30;10.82;;;;;;;;;;12498624;28;20036;-73
2021/12/20 21:42:02;;;;;;;11.02;9.68;;;;;;;;;;12496983;28;20041;-74
2021/12/20 21:48:04;;;;;;;11.55;10.35;;;;;;;;;;12497379;28;20033;-74
2021/12/20 21:54:06;;;;;;;12.25;10.80;;;;;;;;;;12498058;28;20036;-74
2021/12/20 22:00:08;;;;;;;10.80;9.57;;;;;;;;;;12497957;28;20426;-74
2021/12/20 22:06:11;;;;;;;14.90;13.30;;;;;;;;;;12497572;28;20494;-74
2021/12/20 22:12:12;;;;;;;15.38;13.75;;;;;;;;;;12497305;28;20046;-74
2021/12/20 22:18:14;;;;;;;16.30;14.13;;;;;;;;;;12496943;28;20037;-73
2021/12/20 22:24:16;;;;;;;12.85;11.55;;;;;;;;;;12496565;28;20049;-74
2021/12/20 22:30:17;;;;;;;11.05;9.23;;;;;;;;;;12495474;28;20057;-74
2021/12/20 22:36:20;;;;;;;13.80;12.17;;;;;;;;;;12494957;28;20040;-74
2021/12/20 22:42:21;;;;;;;10.93;9.82;;;;;;;;;;12496152;28;20049;-73
2021/12/20 22:48:23;;;;;;;14.18;11.88;;;;;;;;;;12494326;28;20486;-74
2021/12/20 22:54:25;;;;;;;13.68;12.27;;;;;;;;;;12494040;28;20470;-73
2021/12/20 23:00:26;;;;;;;11.70;10.10;;;;;;;;;;12495519;28;20037;-74
2021/12/20 23:06:28;;;;;;;13.80;12.35;;;;;;;;;;12494264;28;20406;-74
2021/12/20 23:12:46;;;;;;;13.80;11.90;;;;;;;;;;12495088;28;20033;-74
2021/12/20 23:18:48;;;;;;;12.32;11.13;;;;;;;;;;12495127;28;20041;-74
2021/12/20 23:24:50;;;;;;;12.65;11.43;;;;;;;;;;12494602;28;20422;-74
2021/12/20 23:30:52;;;;;;;13.43;12.05;;;;;;;;;;12493462;28;20030;-74
2021/12/20 23:36:54;;;;;;;14.43;12.10;;;;;;;;;;12494257;28;20029;-75
2021/12/20 23:43:17;;;;;;;14.18;12.57;;;;;;;;;;12494360;28;20041;-74
2021/12/20 23:49:18;;;;;;;16.98;14.07;;;;;;;;;;12493899;28;20068;-74
2021/12/20 23:55:20;;;;;;;13.70;12.32;;;;;;;;;;12492933;28;20029;-74
